Time;durP1;ratioP1;P1;durP2;ratioP2;P2;SDS_P1;SDS_P2;PMS_P1;PMS_P2;Temp;Humidity;BMP_temperature;BMP_pressure;BME280_temperature;BME280_humidity;BME280_pressure;Samples;Min_cycle;Max_cycle;Signal;HPM_P1;HPM_P2
2022/06/14 00:01:50;;;;;;;;;9.00;9.00;;;;;-147.17;100.00;-15917.19;5052640;28;51432;-60
2022/06/14 00:04:15;;;;;;;;;8.33;8.33;;;;;-147.17;100.00;-15917.19;5063864;27;51227;-59
2022/06/14 00:06:40;;;;;;;;;9.33;9.00;;;;;-147.17;100.00;-15917.19;5066308;27;51298;-59
2022/06/14 00:09:06;;;;;;;;;9.33;9.00;;;;;-147.17;100.00;-15917.19;5061387;28;51388;-59
2022/06/14 00:11:35;;;;;;;;;8.25;7.75;;;;;-147.17;100.00;-15917.19;5061941;27;52634;-59
2022/06/14 00:14:03;;;;;;;;;10.67;10.00;;;;;-147.17;100.00;-15917.19;5064668;28;51869;-59
2022/06/14 00:16:30;;;;;;;;;8.00;8.00;;;;;-147.17;100.00;-15917.19;5062717;28;52732;-60
2022/06/14 00:18:56;;;;;;;;;9.00;8.67;;;;;-147.17;100.00;-15917.19;5065297;28;51341;-60
2022/06/14 00:21:22;;;;;;;;;11.33;9.33;;;;;-147.17;100.00;-15917.19;5064934;27;51179;-59
2022/06/14 00:23:48;;;;;;;;;9.67;8.67;;;;;-147.17;100.00;-15917.19;5064375;28;51923;-59
2022/06/14 00:26:14;;;;;;;;;7.67;7.67;;;;;-147.17;100.00;-15917.19;5065437;27;51176;-60
2022/06/14 00:28:42;;;;;;;;;8.00;8.00;;;;;-147.17;100.00;-15917.19;5068717;27;51177;-59
2022/06/14 00:31:11;;;;;;;;;9.00;9.00;;;;;-147.17;100.00;-15917.19;5062809;27;51125;-59
2022/06/14 00:33:37;;;;;;;;;9.00;8.00;;;;;-147.17;100.00;-15917.19;5063525;28;51765;-59
2022/06/14 00:36:09;;;;;;;;;7.67;7.67;;;;;-147.17;100.00;-15917.19;5056312;27;51046;-60
2022/06/14 00:38:36;;;;;;;;;8.67;7.00;;;;;-147.17;100.00;-15917.19;5066012;28;51196;-60
2022/06/14 00:41:04;;;;;;;;;10.00;8.67;;;;;-147.17;100.00;-15917.19;5060314;27;51287;-60
2022/06/14 00:43:31;;;;;;;;;9.00;9.00;;;;;-147.17;100.00;-15917.19;5059347;28;52318;-59
2022/06/14 00:46:18;;;;;;;;;9.33;9.00;;;;;-147.17;100.00;-15917.19;5080192;27;51337;-60
2022/06/14 00:48:47;;;;;;;;;8.00;8.00;;;;;-147.17;100.00;-15917.19;5058355;28;51345;-59
2022/06/14 00:51:26;;;;;;;;;10.33;10.33;;;;;-147.17;100.00;-15917.19;5065917;28;51290;-60
2022/06/14 00:54:03;;;;;;;;;8.33;8.00;;;;;-147.17;100.00;-15917.19;5067991;27;52010;-59
2022/06/14 00:56:40;;;;;;;;;7.00;7.00;;;;;-147.17;100.00;-15917.19;5054922;28;51115;-59
2022/06/14 00:59:17;;;;;;;;;7.00;6.67;;;;;-147.17;100.00;-15917.19;5056154;28;50979;-58
2022/06/14 01:01:44;;;;;;;;;7.00;7.00;;;;;-147.17;100.00;-15917.19;5057802;28;51247;-59
2022/06/14 01:04:19;;;;;;;;;8.00;7.00;;;;;-147.17;100.00;-15917.19;5065570;27;52109;-60
2022/06/14 01:07:08;;;;;;;;;7.00;7.00;;;;;-147.17;100.00;-15917.19;5068429;28;51280;-60
2022/06/14 01:09:46;;;;;;;;;7.67;7.00;;;;;-147.17;100.00;-15917.19;5060084;27;51174;-62
2022/06/14 01:12:20;;;;;;;;;7.33;7.00;;;;;-147.17;100.00;-15917.19;5053537;28;51660;-60
2022/06/14 01:14:57;;;;;;;;;6.00;6.00;;;;;-147.17;100.00;-15917.19;5067534;28;51881;-60
2022/06/14 01:17:22;;;;;;;;;7.33;7.00;;;;;-147.17;100.00;-15917.19;5064532;27;51008;-59
2022/06/14 01:19:48;;;;;;;;;7.33;6.67;;;;;-147.17;100.00;-15917.19;5058501;28;51122;-59
2022/06/14 01:22:13;;;;;;;;;7.00;7.00;;;;;-147.17;100.00;-15917.19;5073882;28;51189;-59
2022/06/14 01:24:41;;;;;;;;;6.00;6.00;;;;;-147.17;100.00;-15917.19;5067657;28;51151;-58
2022/06/14 01:27:10;;;;;;;;;6.00;6.00;;;;;-147.17;100.00;-15917.19;5069449;28;51345;-60
2022/06/14 01:29:39;;;;;;;;;6.33;6.33;;;;;-147.17;100.00;-15917.19;5062177;27;51113;-59
2022/06/14 01:32:10;;;;;;;;;6.33;6.33;;;;;-147.17;100.00;-15917.19;5068512;27;51070;-60
2022/06/14 01:34:39;;;;;;;;;8.00;7.00;;;;;-147.17;100.00;-15917.19;5069805;27;51173;-60
2022/06/14 01:37:05;;;;;;;;;5.67;5.67;;;;;-147.17;100.00;-15917.19;5058447;28;51225;-58
2022/06/14 01:39:31;;;;;;;;;7.00;7.00;;;;;-147.17;100.00;-15917.19;5067746;27;51166;-59
2022/06/14 01:42:22;;;;;;;;;6.33;6.00;;;;;-147.17;100.00;-15917.19;5060325;27;51040;-61
2022/06/14 01:45:16;;;;;;;;;6.00;6.00;;;;;-147.17;100.00;-15917.19;5060139;28;52035;-59
2022/06/14 01:47:58;;;;;;;;;6.00;6.00;;;;;-147.17;100.00;-15917.19;5055311;27;51015;-60
2022/06/14 01:53:42;;;;;;;;;5.00;5.00;;;;;-147.17;100.00;-15917.19;5061344;28;51183;-59
2022/06/14 01:56:45;;;;;;;;;5.67;5.67;;;;;-147.17;100.00;-15917.19;5067582;27;52157;-60
2022/06/14 01:59:19;;;;;;;;;4.67;4.00;;;;;-147.17;100.00;-15917.19;5063743;27;51175;-59
2022/06/14 02:01:45;;;;;;;;;4.33;4.33;;;;;-147.17;100.00;-15917.19;5064387;28;51365;-59
2022/06/14 02:04:42;;;;;;;;;5.00;5.00;;;;;-147.17;100.00;-15917.19;5063958;28;51091;-59
2022/06/14 02:07:24;;;;;;;;;5.00;4.67;;;;;-147.17;100.00;-15917.19;5057731;28;52204;-59
2022/06/14 02:10:12;;;;;;;;;4.33;4.00;;;;;-147.17;100.00;-15917.19;5063450;28;51242;-59
2022/06/14 02:12:47;;;;;;;;;5.33;5.00;;;;;-147.17;100.00;-15917.19;5071037;28;50893;-59
2022/06/14 02:15:39;;;;;;;;;6.00;5.67;;;;;-147.17;100.00;-15917.19;5060082;28;51226;-60
2022/06/14 02:18:31;;;;;;;;;4.33;4.33;;;;;-147.17;100.00;-15917.19;5068646;28;51029;-60
2022/06/14 02:21:04;;;;;;;;;5.00;4.33;;;;;-147.17;100.00;-15917.19;5066648;28;51256;-60
2022/06/14 02:23:35;;;;;;;;;4.00;4.00;;;;;-147.17;100.00;-15917.19;5059087;28;51138;-60
2022/06/14 02:26:07;;;;;;;;;5.00;5.00;;;;;-147.17;100.00;-15917.19;5062163;28;51278;-60
2022/06/14 02:28:38;;;;;;;;;4.67;4.67;;;;;-147.17;100.00;-15917.19;5068533;27;51246;-60
2022/06/14 02:31:18;;;;;;;;;4.00;4.00;;;;;-147.17;100.00;-15917.19;5057329;28;51130;-60
2022/06/14 02:33:49;;;;;;;;;4.00;4.00;;;;;-147.17;100.00;-15917.19;5063244;28;51019;-60
2022/06/14 02:36:28;;;;;;;;;5.00;5.00;;;;;-147.17;100.00;-15917.19;5071025;27;51508;-60
2022/06/14 02:39:01;;;;;;;;;4.33;3.67;;;;;-147.17;100.00;-15917.19;5054242;27;52904;-60
2022/06/14 02:41:40;;;;;;;;;4.00;4.00;;;;;-147.17;100.00;-15917.19;5063164;27;50970;-60
2022/06/14 02:44:20;;;;;;;;;4.00;3.67;;;;;-147.17;100.00;-15917.19;5056807;28;51108;-59
2022/06/14 02:46:56;;;;;;;;;4.00;3.33;;;;;-147.17;100.00;-15917.19;5065002;28;51188;-60
2022/06/14 02:49:28;;;;;;;;;4.00;4.00;;;;;-147.17;100.00;-15917.19;5072698;27;53075;-59
2022/06/14 02:52:18;;;;;;;;;5.00;5.00;;;;;-147.17;100.00;-15917.19;5064046;28;51368;-60
2022/06/14 02:54:54;;;;;;;;;4.67;4.00;;;;;-147.17;100.00;-15917.19;5061322;28;51377;-59
2022/06/14 02:57:57;;;;;;;;;4.00;4.00;;;;;-147.17;100.00;-15917.19;5064913;28;51059;-59
2022/06/14 03:00:36;;;;;;;;;4.67;4.67;;;;;-147.17;100.00;-15917.19;5050375;28;83321;-59
2022/06/14 03:03:11;;;;;;;;;5.00;4.67;;;;;-147.17;100.00;-15917.19;5066639;28;51110;-59
2022/06/14 03:05:48;;;;;;;;;5.00;5.00;;;;;-147.17;100.00;-15917.19;5064460;28;51164;-59
2022/06/14 03:08:19;;;;;;;;;5.33;5.33;;;;;-147.17;100.00;-15917.19;5063376;27;51185;-59
2022/06/14 03:11:03;;;;;;;;;5.00;4.00;;;;;-147.17;100.00;-15917.19;5063370;28;52353;-61
2022/06/14 03:13:35;;;;;;;;;5.00;5.00;;;;;-147.17;100.00;-15917.19;5060530;28;51176;-59
2022/06/14 03:16:10;;;;;;;;;4.00;4.00;;;;;-147.17;100.00;-15917.19;5058226;28;51008;-59
2022/06/14 03:18:45;;;;;;;;;5.00;5.00;;;;;-147.17;100.00;-15917.19;5062172;27;51202;-59
2022/06/14 03:21:24;;;;;;;;;6.33;6.33;;;;;-147.17;100.00;-15917.19;5060814;28;51720;-60
2022/06/14 03:23:52;;;;;;;;;3.67;3.67;;;;;-147.17;100.00;-15917.19;5055822;28;51192;-60
2022/06/14 03:26:17;;;;;;;;;4.67;4.67;;;;;-147.17;100.00;-15917.19;5064926;27;51146;-60
2022/06/14 03:29:02;;;;;;;;;5.67;4.00;;;;;-147.17;100.00;-15917.19;5065730;28;51241;-60
2022/06/14 03:32:03;;;;;;;;;4.33;4.33;;;;;-147.17;100.00;-15917.19;5061656;28;51818;-59
2022/06/14 03:34:44;;;;;;;;;4.67;4.67;;;;;-147.17;100.00;-15917.19;5059487;27;51098;-60
2022/06/14 03:37:12;;;;;;;;;6.00;6.00;;;;;-147.17;100.00;-15917.19;5056762;28;51198;-60
2022/06/14 03:39:48;;;;;;;;;5.00;5.00;;;;;-147.17;100.00;-15917.19;5061857;27;51286;-59
2022/06/14 03:42:14;;;;;;;;;6.00;5.00;;;;;-147.17;100.00;-15917.19;5058110;27;51363;-59
2022/06/14 03:44:41;;;;;;;;;4.00;4.00;;;;;-147.17;100.00;-15917.19;5056318;27;51183;-59
2022/06/14 03:47:09;;;;;;;;;5.00;5.00;;;;;-147.17;100.00;-15917.19;5064570;27;51274;-59
2022/06/14 03:50:01;;;;;;;;;4.33;4.33;;;;;-147.17;100.00;-15917.19;5060021;28;51359;-59
2022/06/14 03:52:46;;;;;;;;;4.00;4.00;;;;;-147.17;100.00;-15917.19;5080927;27;52173;-58
2022/06/14 03:55:32;;;;;;;;;3.33;3.33;;;;;-147.17;100.00;-15917.19;5056467;27;51239;-59
2022/06/14 03:58:14;;;;;;;;;6.00;6.00;;;;;-147.17;100.00;-15917.19;5066658;28;51185;-59
2022/06/14 04:00:49;;;;;;;;;6.00;4.00;;;;;-147.17;100.00;-15917.19;5063995;28;51072;-60
2022/06/14 04:03:14;;;;;;;;;6.33;5.00;;;;;-147.17;100.00;-15917.19;5063594;27;51927;-59
2022/06/14 04:05:55;;;;;;;;;5.67;5.00;;;;;-147.17;100.00;-15917.19;5069458;28;51131;-60
2022/06/14 04:08:45;;;;;;;;;5.00;5.00;;;;;-147.17;100.00;-15917.19;5068949;27;51651;-59
2022/06/14 04:11:30;;;;;;;;;7.00;6.00;;;;;-147.17;100.00;-15917.19;5064725;28;51086;-59
2022/06/14 04:14:26;;;;;;;;;7.00;6.00;;;;;-147.17;100.00;-15917.19;5059533;27;51039;-59
2022/06/14 04:16:57;;;;;;;;;7.00;7.00;;;;;-147.17;100.00;-15917.19;5069413;28;51151;-58
2022/06/14 04:19:48;;;;;;;;;5.00;5.00;;;;;-147.17;100.00;-15917.19;5068146;27;51316;-59
2022/06/14 04:22:19;;;;;;;;;5.33;5.33;;;;;-147.17;100.00;-15917.19;5058878;28;50996;-60
2022/06/14 04:24:54;;;;;;;;;6.67;6.67;;;;;-147.17;100.00;-15917.19;5067277;28;51984;-60
2022/06/14 04:27:35;;;;;;;;;6.33;6.00;;;;;-147.17;100.00;-15917.19;5069183;28;51170;-59
2022/06/14 04:30:04;;;;;;;;;6.00;5.67;;;;;-147.17;100.00;-15917.19;5054394;28;51051;-60
2022/06/14 04:32:51;;;;;;;;;7.00;7.00;;;;;-147.17;100.00;-15917.19;5064248;28;51108;-60
2022/06/14 04:35:31;;;;;;;;;10.33;8.00;;;;;-147.17;100.00;-15917.19;5082543;27;52760;-60
2022/06/14 04:38:07;;;;;;;;;8.00;7.00;;;;;-147.17;100.00;-15917.19;5055153;28;51186;-60
2022/06/14 04:40:58;;;;;;;;;10.67;9.00;;;;;-147.17;100.00;-15917.19;5062665;28;51338;-59
2022/06/14 04:43:31;;;;;;;;;6.67;5.67;;;;;-147.17;100.00;-15917.19;5068599;27;51334;-59
2022/06/14 04:46:05;;;;;;;;;6.00;6.00;;;;;-147.17;100.00;-15917.19;5057040;27;52650;-60
2022/06/14 04:48:42;;;;;;;;;5.67;5.67;;;;;-147.17;100.00;-15917.19;5063394;28;51043;-59
2022/06/14 04:51:18;;;;;;;;;4.67;4.67;;;;;-147.17;100.00;-15917.19;5064020;27;50962;-60
2022/06/14 04:53:51;;;;;;;;;5.00;5.00;;;;;-147.17;100.00;-15917.19;5068482;28;51106;-60
2022/06/14 04:56:31;;;;;;;;;7.67;7.00;;;;;-147.17;100.00;-15917.19;5053996;28;51917;-59
2022/06/14 04:59:20;;;;;;;;;6.00;6.00;;;;;-147.17;100.00;-15917.19;5068834;27;51218;-61
2022/06/14 05:01:50;;;;;;;;;5.67;5.00;;;;;-147.17;100.00;-15917.19;5055992;28;51271;-61
2022/06/14 05:04:18;;;;;;;;;6.67;6.67;;;;;-147.17;100.00;-15917.19;5065191;28;51240;-60
2022/06/14 05:07:04;;;;;;;;;5.00;5.00;;;;;-147.17;100.00;-15917.19;5061033;28;51068;-61
2022/06/14 05:09:44;;;;;;;;;6.67;6.67;;;;;-147.17;100.00;-15917.19;5060599;28;51092;-62
2022/06/14 05:12:22;;;;;;;;;6.00;6.00;;;;;-147.17;100.00;-15917.19;5067568;28;51052;-62
2022/06/14 05:15:01;;;;;;;;;6.00;6.00;;;;;-147.17;100.00;-15917.19;5054721;28;51202;-62
2022/06/14 05:17:42;;;;;;;;;6.67;6.00;;;;;-147.17;100.00;-15917.19;5060506;28;50959;-62
2022/06/14 05:20:37;;;;;;;;;6.00;6.00;;;;;-147.17;100.00;-15917.19;5066123;28;51067;-61
2022/06/14 05:23:21;;;;;;;;;6.33;5.67;;;;;-147.17;100.00;-15917.19;5060882;28;51362;-63
2022/06/14 05:26:01;;;;;;;;;6.00;6.00;;;;;-147.17;100.00;-15917.19;5061027;28;51077;-61
2022/06/14 05:28:59;;;;;;;;;5.33;5.33;;;;;-147.17;100.00;-15917.19;5061044;27;51438;-61
2022/06/14 05:31:35;;;;;;;;;4.67;4.67;;;;;-147.17;100.00;-15917.19;5058579;27;51230;-60
2022/06/14 05:34:06;;;;;;;;;5.33;5.33;;;;;-147.17;100.00;-15917.19;5063535;27;51075;-61
2022/06/14 05:36:38;;;;;;;;;6.33;6.00;;;;;-147.17;100.00;-15917.19;5057406;28;50960;-61
2022/06/14 05:39:15;;;;;;;;;6.33;6.00;;;;;-147.17;100.00;-15917.19;5055656;28;51034;-61
2022/06/14 05:41:46;;;;;;;;;6.00;6.00;;;;;-147.17;100.00;-15420.25;5071561;28;51113;-61
2022/06/14 05:44:16;;;;;;;;;6.00;6.00;;;;;-147.17;100.00;-14676.94;5061714;28;51172;-61
2022/06/14 05:46:54;;;;;;;;;6.00;5.00;;;;;-147.17;100.00;-13189.88;5069240;28;50892;-61
2022/06/14 05:49:29;;;;;;;;;5.67;5.67;;;;;-147.17;100.00;-12198.19;5063916;28;51860;-61
2022/06/14 05:52:12;;;;;;;;;5.00;5.00;;;;;-147.17;100.00;-10462.09;5056703;28;51174;-61
2022/06/14 05:54:55;;;;;;;;;5.00;5.00;;;;;-147.17;100.00;-8725.22;5057923;28;51150;-61
2022/06/14 05:57:33;;;;;;;;;6.00;6.00;;;;;-147.17;100.00;-6987.56;5070672;28;51092;-60
2022/06/14 06:00:10;;;;;;;;;10.67;10.00;;;;;-147.17;100.00;-5000.69;5052922;28;52262;-60
2022/06/14 06:02:54;;;;;;;;;6.67;6.00;;;;;-147.17;100.00;-4006.88;5062969;28;51196;-61
2022/06/14 06:05:19;;;;;;;;;5.33;5.33;;;;;-147.17;100.00;-2515.66;5058395;28;51070;-60
2022/06/14 06:07:55;;;;;;;;;5.67;5.33;;;;;-147.17;100.00;3454.97;5077142;27;51138;-61
2022/06/14 06:10:31;;;;;;;;;6.00;5.33;;;;;-147.17;100.00;1712.56;5055992;28;51027;-61
2022/06/14 06:13:02;;;;;;;;;5.00;5.00;;;;;-147.17;100.00;2957.06;5062271;28;51122;-59
2022/06/14 06:15:38;;;;;;;;;5.67;5.67;;;;;-147.17;100.00;15673.69;5064291;27;51283;-61
2022/06/14 06:18:14;;;;;;;;;5.00;5.00;;;;;-147.17;100.00;16922.66;5068584;27;51293;-62
2022/06/14 06:20:57;;;;;;;;;5.00;4.67;;;;;-147.17;100.00;16173.25;5065317;27;51262;-61
2022/06/14 06:23:31;;;;;;;;;5.67;5.67;;;;;-147.17;100.00;14175.44;5055439;28;51143;-60
2022/06/14 06:25:57;;;;;;;;;5.00;5.00;;;;;-147.17;100.00;14425.13;5067264;28;51115;-61
2022/06/14 06:28:28;;;;;;;;;4.00;4.00;;;;;-147.17;100.00;16922.66;5064117;27;51098;-61
2022/06/14 06:31:14;;;;;;;;;4.67;4.67;;;;;-147.17;100.00;18172.06;5061567;28;52089;-63
2022/06/14 06:33:46;;;;;;;;;4.00;4.00;;;;;-147.17;100.00;19455.03;5061557;28;51066;-61
2022/06/14 06:36:26;;;;;;;;;5.00;5.00;;;;;-147.17;100.00;23498.13;5068789;27;51448;-61
2022/06/14 06:39:37;;;;;;;;;5.00;5.00;;;;;-147.17;100.00;23118.84;5064961;27;50953;-61
2022/06/14 06:42:05;;;;;;;;;6.00;6.00;;;;;-147.17;100.00;22772.84;5066634;28;53609;-60
2022/06/14 06:44:48;;;;;;;;;5.00;4.33;;;;;-147.17;100.00;22665.31;5069268;27;51269;-60
2022/06/14 06:47:22;;;;;;;;;5.33;5.33;;;;;-147.17;100.00;23165.75;5061758;28;50987;-61
2022/06/14 06:50:18;;;;;;;;;3.67;3.67;;;;;-147.17;100.00;23095.38;5065986;27;50917;-60
2022/06/14 06:52:56;;;;;;;;;4.67;4.33;;;;;-147.17;100.00;24045.59;5065609;28;52611;-61
2022/06/14 06:55:49;;;;;;;;;4.00;4.00;;;;;-147.17;100.00;26302.78;5064467;27;51136;-62
2022/06/14 06:58:30;;;;;;;;;6.00;5.67;;;;;-147.17;100.00;27163.78;5065391;28;51305;-61
2022/06/14 07:01:02;;;;;;;;;5.67;4.00;;;;;-147.17;100.00;29775.25;5061181;28;51196;-61
2022/06/14 07:03:40;;;;;;;;;5.00;4.00;;;;;-147.17;100.00;29693.00;5069574;28;54121;-61
2022/06/14 07:06:13;;;;;;;;;3.33;3.33;;;;;-147.17;100.00;29279.84;5071397;27;51008;-61
2022/06/14 07:08:48;;;;;;;;;5.67;5.67;;;;;-147.17;100.00;29714.53;5068041;28;51235;-61
2022/06/14 07:11:17;;;;;;;;;6.00;3.67;;;;;-147.17;100.00;30225.69;5055310;28;50912;-60
2022/06/14 07:13:52;;;;;;;;;5.67;5.67;;;;;-147.17;100.00;30386.28;5051760;28;51543;-61
2022/06/14 07:16:20;;;;;;;;;5.00;5.00;;;;;-147.17;100.00;31199.19;5051149;28;51181;-60
2022/06/14 07:18:54;;;;;;;;;5.67;5.00;;;;;-147.17;100.00;30652.66;5063370;27;51068;-61
2022/06/14 07:21:31;;;;;;;;;4.00;4.00;;;;;-147.17;100.00;30255.06;5056926;28;51187;-61
2022/06/14 07:24:15;;;;;;;;;4.00;3.00;;;;;-147.17;100.00;33048.91;5061166;28;51154;-61
2022/06/14 07:26:48;;;;;;;;;4.00;4.00;;;;;-147.17;100.00;32858.81;5069301;27;51023;-61
2022/06/14 07:29:26;;;;;;;;;4.33;4.33;;;;;-147.17;100.00;36109.53;5060228;27;51005;-60
2022/06/14 07:31:58;;;;;;;;;2.00;2.00;;;;;-147.17;100.00;36654.88;5067449;27;51133;-61
2022/06/14 07:34:26;;;;;;;;;4.00;4.00;;;;;-147.17;100.00;36631.31;5051932;28;52052;-61
2022/06/14 07:36:52;;;;;;;;;5.00;5.00;;;;;-147.17;100.00;36772.56;5061189;28;51047;-60
2022/06/14 07:39:25;;;;;;;;;5.00;5.00;;;;;-147.17;100.00;36280.19;5065634;28;51074;-60
2022/06/14 07:42:04;;;;;;;;;6.00;6.00;;;;;-147.17;100.00;36388.06;5061774;27;51110;-61
2022/06/14 07:44:49;;;;;;;;;3.00;3.00;;;;;-147.17;100.00;36478.31;5055276;28;51135;-60
2022/06/14 07:47:35;;;;;;;;;4.00;4.00;;;;;-147.17;100.00;38446.31;5065253;28;50943;-60
2022/06/14 07:50:13;;;;;;;;;5.33;4.00;;;;;-147.17;100.00;38805.50;5055763;28;51233;-60
2022/06/14 07:52:48;;;;;;;;;3.00;3.00;;;;;-147.17;100.00;39779.16;5066559;28;51378;-61
2022/06/14 07:55:38;;;;;;;;;3.67;3.67;;;;;-147.17;100.00;39686.91;5057164;28;51102;-61
2022/06/14 07:58:12;;;;;;;;;3.67;3.33;;;;;-147.17;100.00;39152.94;5061003;27;51130;-61
2022/06/14 08:03:38;;;;;;;;;2.67;2.00;;;;;-147.17;100.00;40110.97;5057955;28;51161;-60
2022/06/14 08:06:09;;;;;;;;;4.67;4.33;;;;;-147.17;100.00;39647.63;5050277;28;52031;-61
2022/06/14 08:08:38;;;;;;;;;4.00;4.00;;;;;-147.17;100.00;39735.97;5059462;28;50867;-61
2022/06/14 08:11:10;;;;;;;;;3.00;3.00;;;;;-147.17;100.00;39794.88;5083887;27;51175;-60
2022/06/14 08:13:47;;;;;;;;;5.00;5.00;;;;;-147.17;100.00;40006.91;5061719;27;51439;-61
2022/06/14 08:16:28;;;;;;;;;5.00;5.00;;;;;-147.17;100.00;40187.56;5064387;27;51233;-60
2022/06/14 08:19:05;;;;;;;;;4.67;4.33;;;;;-147.17;100.00;40273.94;5069413;28;51035;-61
2022/06/14 08:21:41;;;;;;;;;5.00;5.00;;;;;-147.17;100.00;40733.44;5064427;27;51171;-61
2022/06/14 08:24:18;;;;;;;;;5.00;5.00;;;;;-147.17;100.00;41149.78;5064293;28;51220;-62
2022/06/14 08:26:56;;;;;;;;;5.00;5.00;;;;;-147.17;100.00;41210.66;5060421;28;52213;-59
2022/06/14 08:29:34;;;;;;;;;6.00;5.00;;;;;-147.17;100.00;41654.56;5050473;28;50929;-59
2022/06/14 08:32:23;;;;;;;;;4.00;4.00;;;;;-147.17;100.00;42171.19;5053633;28;50967;-60
2022/06/14 08:35:30;;;;;;;;;5.00;5.00;;;;;-147.17;100.00;42854.88;5058965;28;51158;-64
2022/06/14 08:38:04;;;;;;;;;7.00;6.00;;;;;-147.17;100.00;42801.81;5044364;27;52926;-60
2022/06/14 08:40:41;;;;;;;;;5.67;5.00;;;;;-147.17;100.00;42719.31;5073370;27;51219;-60
2022/06/14 08:43:10;;;;;;;;;7.00;6.00;;;;;-147.17;100.00;42988.47;5071036;28;51323;-60
2022/06/14 08:45:35;;;;;;;;;5.00;5.00;;;;;-147.17;100.00;42972.78;5058247;27;51434;-60
2022/06/14 08:48:27;;;;;;;;;4.00;4.00;;;;;-147.17;100.00;43153.53;5061362;28;51886;-60
2022/06/14 08:51:10;;;;;;;;;5.00;4.33;;;;;-147.17;100.00;43562.28;5059099;28;51174;-61
2022/06/14 08:54:17;;;;;;;;;3.67;3.33;;;;;-147.17;100.00;43522.97;5054545;28;51102;-59
2022/06/14 08:57:00;;;;;;;;;5.33;5.33;;;;;-147.17;100.00;44077.19;5051400;28;51380;-59
2022/06/14 08:59:36;;;;;;;;;5.00;5.00;;;;;-147.17;100.00;44261.94;5039043;28;51907;-60
2022/06/14 09:02:08;;;;;;;;;4.33;4.00;;;;;-147.17;100.00;44261.94;5062994;28;50949;-65
2022/06/14 09:05:17;;;;;;;;;3.67;3.33;;;;;-147.17;100.00;44242.28;5067681;28;51235;-60
2022/06/14 09:08:10;;;;;;;;;4.33;4.33;;;;;-147.17;100.00;44026.09;5057816;28;51106;-60
2022/06/14 09:11:21;;;;;;;;;4.67;4.67;;;;;-147.17;100.00;44018.22;5052392;28;51278;-61
2022/06/14 09:14:15;;;;;;;;;7.00;6.33;;;;;-147.17;100.00;43902.25;5057500;28;51350;-61
2022/06/14 09:16:46;;;;;;;;;3.67;3.67;;;;;-147.17;100.00;43650.72;5070904;27;51311;-61
2022/06/14 09:19:49;;;;;;;;;4.00;3.33;;;;;-147.17;100.00;43310.75;5061182;27;51360;-61
2022/06/14 09:22:38;;;;;;;;;5.33;5.33;;;;;-147.17;100.00;43287.16;5065849;28;52106;-61
2022/06/14 09:25:38;;;;;;;;;4.33;4.33;;;;;-147.17;100.00;43747.00;5063150;28;50992;-60
2022/06/14 09:28:06;;;;;;;;;4.00;3.67;;;;;-147.17;100.00;43768.63;5063543;28;51098;-60
2022/06/14 09:30:41;;;;;;;;;5.00;5.00;;;;;-147.17;100.00;43528.88;5061602;27;51390;-60
2022/06/14 09:33:26;;;;;;;;;5.00;3.67;;;;;-147.17;100.00;43405.06;5070908;28;51859;-61
2022/06/14 09:36:19;;;;;;;;;4.00;4.00;;;;;-147.17;100.00;43041.53;5062898;28;51253;-60
2022/06/14 09:39:06;;;;;;;;;6.00;5.00;;;;;-147.17;100.00;42876.50;5056428;28;51030;-60
2022/06/14 09:41:53;;;;;;;;;4.67;4.00;;;;;-147.17;100.00;43094.59;5056975;28;50903;-61
2022/06/14 09:44:38;;;;;;;;;2.67;2.67;;;;;-147.17;100.00;43389.34;5052603;28;51849;-60
2022/06/14 09:47:35;;;;;;;;;7.00;5.67;;;;;-147.17;100.00;43108.34;5062237;28;51111;-61
2022/06/14 09:50:06;;;;;;;;;5.00;5.00;;;;;-147.17;100.00;43016.00;5067724;28;51286;-60
2022/06/14 09:53:09;;;;;;;;;4.00;4.00;;;;;-147.17;100.00;42740.91;5065138;28;50947;-60
2022/06/14 09:56:22;;;;;;;;;0.00;0.00;;;;;-147.17;100.00;42446.22;5061190;27;51938;-60
2022/06/14 09:58:50;;;;;;;;;4.67;4.67;;;;;-147.17;100.00;42167.25;5043877;28;51292;-60
2022/06/14 10:01:36;;;;;;;;;4.00;4.00;;;;;-147.17;100.00;41794.00;5054785;28;51160;-60
2022/06/14 10:04:19;;;;;;;;;5.00;5.00;;;;;-147.17;100.00;42357.81;5066801;27;51165;-60
2022/06/14 10:07:12;;;;;;;;;5.67;5.00;;;;;-147.17;100.00;42442.28;5069595;28;53870;-61
2022/06/14 10:10:11;;;;;;;;;7.00;7.00;;;;;-147.17;100.00;42456.03;5054923;28;51126;-60
2022/06/14 10:12:48;;;;;;;;;5.00;5.00;;;;;-147.17;100.00;42575.88;5062388;27;50908;-60
2022/06/14 10:15:22;;;;;;;;;6.33;6.33;;;;;-147.17;100.00;42758.59;5056590;28;50771;-59
2022/06/14 10:18:40;;;;;;;;;5.00;5.00;;;;;-147.17;100.00;42968.84;5056567;27;51862;-60
2022/06/14 10:21:22;;;;;;;;;5.33;5.33;;;;;-147.17;100.00;43373.63;5025883;28;51106;-61
2022/06/14 10:23:59;;;;;;;;;5.67;4.67;;;;;-147.17;100.00;43882.59;5052766;28;51037;-61
2022/06/14 10:29:36;;;;;;;;;4.33;4.33;;;;;-147.17;100.00;44340.56;5068231;28;51386;-61
2022/06/14 10:32:08;;;;;;;;;6.33;6.33;;;;;-147.17;100.00;44238.34;5070428;27;51043;-61
2022/06/14 10:34:45;;;;;;;;;6.33;5.67;;;;;-147.17;100.00;44393.63;5062451;28;51110;-60
2022/06/14 10:37:44;;;;;;;;;10.00;9.67;;;;;-147.17;100.00;44568.56;5071724;28;50972;-60
2022/06/14 10:40:22;;;;;;;;;6.67;6.00;;;;;-147.17;100.00;44470.28;5062055;27;51353;-60
2022/06/14 10:43:14;;;;;;;;;8.00;7.00;;;;;-147.17;100.00;44423.13;5062101;28;51034;-60
2022/06/14 10:45:54;;;;;;;;;8.00;8.00;;;;;-147.17;100.00;44199.03;5070939;27;50892;-60
2022/06/14 10:48:59;;;;;;;;;7.33;7.00;;;;;-147.17;100.00;44177.41;5058106;27;51129;-61
2022/06/14 10:51:59;;;;;;;;;7.33;7.33;;;;;-147.17;100.00;43874.75;5061206;28;51742;-60
2022/06/14 10:54:46;;;;;;;;;7.33;7.00;;;;;-147.17;100.00;43927.81;5047867;28;51159;-61
2022/06/14 10:57:12;;;;;;;;;8.67;7.00;;;;;-147.17;100.00;44035.91;5068914;27;51045;-60
2022/06/14 10:59:58;;;;;;;;;6.33;6.33;;;;;-147.17;100.00;43878.69;5063712;28;51077;-60
2022/06/14 11:02:59;;;;;;;;;9.67;9.33;;;;;-147.17;100.00;44100.78;5061516;28;52167;-60
2022/06/14 11:05:31;;;;;;;;;8.33;8.33;;;;;-147.17;100.00;44145.97;5034208;28;51134;-60
2022/06/14 11:08:04;;;;;;;;;9.00;9.00;;;;;-147.17;100.00;43805.97;5051455;28;50983;-61
2022/06/14 11:10:38;;;;;;;;;14.67;14.00;;;;;-147.17;100.00;43607.47;5051891;28;51303;-61
2022/06/14 11:13:13;;;;;;;;;10.00;8.67;;;;;-147.17;100.00;43027.78;5051695;28;52175;-61
2022/06/14 11:15:45;;;;;;;;;11.00;9.33;;;;;-147.17;100.00;42766.47;5051135;28;51011;-61
2022/06/14 11:18:10;;;;;;;;;10.00;7.33;;;;;-147.17;100.00;42913.81;5056475;28;51066;-62
2022/06/14 11:21:25;;;;;;;;;9.00;9.00;;;;;-147.17;100.00;42784.16;5072168;27;51104;-61
2022/06/14 11:24:14;;;;;;;;;6.33;6.33;;;;;-147.17;100.00;42697.69;5071401;27;51139;-62
2022/06/14 11:26:54;;;;;;;;;7.00;7.00;;;;;-147.17;100.00;42992.41;5071647;27;51211;-62
2022/06/14 11:29:28;;;;;;;;;6.00;6.00;;;;;-147.17;100.00;43023.84;5058850;27;51068;-63
2022/06/14 11:32:08;;;;;;;;;6.33;6.33;;;;;-147.17;100.00;43147.66;5061036;28;51376;-62
2022/06/14 11:35:04;;;;;;;;;6.00;6.00;;;;;-147.17;100.00;42595.53;5060605;27;51161;-62
2022/06/14 11:37:39;;;;;;;;;6.67;6.67;;;;;-147.17;100.00;42234.03;5058895;28;51049;-61
2022/06/14 11:40:17;;;;;;;;;6.67;6.67;;;;;-147.17;100.00;42768.44;5081669;27;51197;-63
2022/06/14 11:42:55;;;;;;;;;6.00;6.00;;;;;-147.17;100.00;43861.00;5057309;28;50960;-61
2022/06/14 11:45:38;;;;;;;;;6.67;6.33;;;;;-147.17;100.00;44474.22;5066653;27;51170;-63
2022/06/14 11:48:07;;;;;;;;;6.00;6.00;;;;;-147.17;100.00;44639.34;5052382;28;51108;-62
2022/06/14 11:50:43;;;;;;;;;7.67;7.33;;;;;-147.17;100.00;44857.53;5053748;28;51295;-63
2022/06/14 11:53:30;;;;;;;;;7.33;6.67;;;;;-147.17;100.00;44873.25;5051636;28;52213;-63
2022/06/14 11:56:00;;;;;;;;;8.00;7.67;;;;;-147.17;100.00;44877.19;5067072;28;52893;-63
2022/06/14 11:58:58;;;;;;;;;7.33;7.33;;;;;-147.17;100.00;44991.22;5052086;28;51047;-62
2022/06/14 12:02:14;;;;;;;;;10.00;9.00;;;;;-147.17;100.00;45150.44;5058137;28;51296;-62
2022/06/14 12:05:01;;;;;;;;;7.00;6.33;;;;;-147.17;100.00;45209.44;5043986;28;52537;-63
2022/06/14 12:07:38;;;;;;;;;7.33;7.00;;;;;-147.17;100.00;45077.72;5057699;28;51047;-64